sensor_id;sensor_type;location;lat;lon;timestamp;P1;durP1;ratioP1;P2;durP2;ratioP2
18322;SDS011;9287;49.456;11.064;2022-10-23T00:00:59;7.13;;;3.47;;
18322;SDS011;9287;49.456;11.064;2022-10-23T00:03:26;6.17;;;3.37;;
18322;SDS011;9287;49.456;11.064;2022-10-23T00:05:54;5.10;;;3.30;;
18322;SDS011;9287;49.456;11.064;2022-10-23T00:08:21;5.90;;;3.57;;
18322;SDS011;9287;49.456;11.064;2022-10-23T00:10:49;6.53;;;4.10;;
18322;SDS011;9287;49.456;11.064;2022-10-23T00:13:16;4.77;;;3.50;;
18322;SDS011;9287;49.456;11.064;2022-10-23T00:15:45;3.93;;;2.60;;
18322;SDS011;9287;49.456;11.064;2022-10-23T00:18:13;4.50;;;3.40;;
18322;SDS011;9287;49.456;11.064;2022-10-23T00:20:40;6.90;;;3.43;;
18322;SDS011;9287;49.456;11.064;2022-10-23T00:23:08;4.33;;;3.63;;
18322;SDS011;9287;49.456;11.064;2022-10-23T00:25:35;4.93;;;3.80;;
18322;SDS011;9287;49.456;11.064;2022-10-23T00:28:04;5.03;;;3.17;;
18322;SDS011;9287;49.456;11.064;2022-10-23T00:30:31;4.97;;;3.50;;
18322;SDS011;9287;49.456;11.064;2022-10-23T00:33:00;4.23;;;2.73;;
18322;SDS011;9287;49.456;11.064;2022-10-23T00:35:27;5.90;;;3.30;;
18322;SDS011;9287;49.456;11.064;2022-10-23T00:37:55;7.57;;;3.37;;
18322;SDS011;9287;49.456;11.064;2022-10-23T00:40:23;7.13;;;4.10;;
18322;SDS011;9287;49.456;11.064;2022-10-23T00:42:50;6.10;;;3.33;;
18322;SDS011;9287;49.456;11.064;2022-10-23T00:45:20;4.77;;;3.30;;
18322;SDS011;9287;49.456;11.064;2022-10-23T00:47:48;6.37;;;2.90;;
18322;SDS011;9287;49.456;11.064;2022-10-23T00:50:17;5.33;;;3.07;;
18322;SDS011;9287;49.456;11.064;2022-10-23T00:52:46;3.17;;;2.50;;
18322;SDS011;9287;49.456;11.064;2022-10-23T00:55:14;6.63;;;3.30;;
18322;SDS011;9287;49.456;11.064;2022-10-23T00:57:43;6.77;;;3.40;;
18322;SDS011;9287;49.456;11.064;2022-10-23T01:00:13;7.13;;;3.20;;
18322;SDS011;9287;49.456;11.064;2022-10-23T01:02:40;4.57;;;3.20;;
18322;SDS011;9287;49.456;11.064;2022-10-23T01:05:08;4.67;;;2.90;;
18322;SDS011;9287;49.456;11.064;2022-10-23T01:07:39;5.17;;;3.10;;
18322;SDS011;9287;49.456;11.064;2022-10-23T01:10:10;5.10;;;3.00;;
18322;SDS011;9287;49.456;11.064;2022-10-23T01:12:43;5.60;;;2.80;;
18322;SDS011;9287;49.456;11.064;2022-10-23T01:15:13;5.17;;;3.10;;
18322;SDS011;9287;49.456;11.064;2022-10-23T01:17:43;5.27;;;2.80;;
18322;SDS011;9287;49.456;11.064;2022-10-23T01:20:23;3.03;;;2.83;;
18322;SDS011;9287;49.456;11.064;2022-10-23T01:23:11;3.50;;;2.80;;
18322;SDS011;9287;49.456;11.064;2022-10-23T01:25:49;6.87;;;2.73;;
18322;SDS011;9287;49.456;11.064;2022-10-23T01:28:21;2.77;;;2.40;;
18322;SDS011;9287;49.456;11.064;2022-10-23T01:30:51;4.63;;;2.77;;
18322;SDS011;9287;49.456;11.064;2022-10-23T01:33:20;3.70;;;2.80;;
18322;SDS011;9287;49.456;11.064;2022-10-23T01:35:50;6.70;;;3.20;;
18322;SDS011;9287;49.456;11.064;2022-10-23T01:38:19;4.97;;;3.40;;
18322;SDS011;9287;49.456;11.064;2022-10-23T01:40:49;3.00;;;2.77;;
18322;SDS011;9287;49.456;11.064;2022-10-23T01:43:23;3.20;;;2.83;;
18322;SDS011;9287;49.456;11.064;2022-10-23T01:45:52;4.57;;;2.60;;
18322;SDS011;9287;49.456;11.064;2022-10-23T01:48:22;3.80;;;2.50;;
18322;SDS011;9287;49.456;11.064;2022-10-23T01:50:51;8.30;;;3.20;;
18322;SDS011;9287;49.456;11.064;2022-10-23T01:53:19;4.63;;;2.50;;
18322;SDS011;9287;49.456;11.064;2022-10-23T01:55:46;5.23;;;3.07;;
18322;SDS011;9287;49.456;11.064;2022-10-23T01:58:14;2.93;;;2.63;;
18322;SDS011;9287;49.456;11.064;2022-10-23T02:00:44;9.33;;;3.00;;
18322;SDS011;9287;49.456;11.064;2022-10-23T02:03:11;6.30;;;2.47;;
18322;SDS011;9287;49.456;11.064;2022-10-23T02:05:40;2.77;;;2.33;;
18322;SDS011;9287;49.456;11.064;2022-10-23T02:08:08;4.83;;;2.00;;
18322;SDS011;9287;49.456;11.064;2022-10-23T02:10:38;5.10;;;2.37;;
18322;SDS011;9287;49.456;11.064;2022-10-23T02:13:09;2.63;;;2.33;;
18322;SDS011;9287;49.456;11.064;2022-10-23T02:15:40;2.13;;;1.90;;
18322;SDS011;9287;49.456;11.064;2022-10-23T02:18:14;3.43;;;1.80;;
18322;SDS011;9287;49.456;11.064;2022-10-23T02:20:45;3.93;;;2.03;;
18322;SDS011;9287;49.456;11.064;2022-10-23T02:23:16;3.67;;;2.37;;
18322;SDS011;9287;49.456;11.064;2022-10-23T02:25:47;2.87;;;2.00;;
18322;SDS011;9287;49.456;11.064;2022-10-23T02:28:18;3.60;;;2.13;;
18322;SDS011;9287;49.456;11.064;2022-10-23T02:30:46;6.70;;;2.13;;
18322;SDS011;9287;49.456;11.064;2022-10-23T02:33:16;1.83;;;1.73;;
18322;SDS011;9287;49.456;11.064;2022-10-23T02:35:44;3.73;;;2.07;;
18322;SDS011;9287;49.456;11.064;2022-10-23T02:38:28;4.03;;;2.80;;
18322;SDS011;9287;49.456;11.064;2022-10-23T02:40:56;5.10;;;2.50;;
18322;SDS011;9287;49.456;11.064;2022-10-23T02:43:25;3.77;;;2.07;;
18322;SDS011;9287;49.456;11.064;2022-10-23T02:45:56;4.47;;;2.10;;
18322;SDS011;9287;49.456;11.064;2022-10-23T02:48:28;5.37;;;2.50;;
18322;SDS011;9287;49.456;11.064;2022-10-23T02:51:00;3.40;;;2.20;;
18322;SDS011;9287;49.456;11.064;2022-10-23T02:53:29;3.97;;;1.93;;
18322;SDS011;9287;49.456;11.064;2022-10-23T02:56:00;4.77;;;2.23;;
18322;SDS011;9287;49.456;11.064;2022-10-23T02:58:31;4.37;;;2.30;;
18322;SDS011;9287;49.456;11.064;2022-10-23T03:01:03;3.47;;;2.20;;
18322;SDS011;9287;49.456;11.064;2022-10-23T03:03:34;3.20;;;1.97;;
18322;SDS011;9287;49.456;11.064;2022-10-23T03:06:02;5.03;;;2.20;;
18322;SDS011;9287;49.456;11.064;2022-10-23T03:08:29;5.77;;;2.30;;
18322;SDS011;9287;49.456;11.064;2022-10-23T03:11:06;2.90;;;2.13;;
18322;SDS011;9287;49.456;11.064;2022-10-23T03:13:33;6.20;;;2.17;;
18322;SDS011;9287;49.456;11.064;2022-10-23T03:16:01;8.93;;;2.33;;
18322;SDS011;9287;49.456;11.064;2022-10-23T03:18:28;6.67;;;2.53;;
18322;SDS011;9287;49.456;11.064;2022-10-23T03:20:57;6.83;;;2.07;;
18322;SDS011;9287;49.456;11.064;2022-10-23T03:23:24;3.90;;;2.43;;
18322;SDS011;9287;49.456;11.064;2022-10-23T03:25:52;4.70;;;2.70;;
18322;SDS011;9287;49.456;11.064;2022-10-23T03:28:21;5.10;;;2.03;;
18322;SDS011;9287;49.456;11.064;2022-10-23T03:30:48;6.30;;;2.20;;
18322;SDS011;9287;49.456;11.064;2022-10-23T03:33:16;3.70;;;2.63;;
18322;SDS011;9287;49.456;11.064;2022-10-23T03:35:43;4.63;;;2.00;;
18322;SDS011;9287;49.456;11.064;2022-10-23T03:38:12;3.57;;;2.60;;
18322;SDS011;9287;49.456;11.064;2022-10-23T03:40:40;7.03;;;1.93;;
18322;SDS011;9287;49.456;11.064;2022-10-23T03:43:07;4.63;;;2.63;;
18322;SDS011;9287;49.456;11.064;2022-10-23T03:45:34;5.73;;;2.60;;
18322;SDS011;9287;49.456;11.064;2022-10-23T03:48:03;3.03;;;2.40;;
18322;SDS011;9287;49.456;11.064;2022-10-23T03:50:30;4.30;;;2.40;;
18322;SDS011;9287;49.456;11.064;2022-10-23T03:52:58;4.50;;;2.47;;
18322;SDS011;9287;49.456;11.064;2022-10-23T03:55:27;4.57;;;2.47;;
18322;SDS011;9287;49.456;11.064;2022-10-23T03:57:54;2.50;;;2.30;;
18322;SDS011;9287;49.456;11.064;2022-10-23T04:00:22;2.63;;;2.27;;
18322;SDS011;9287;49.456;11.064;2022-10-23T04:02:49;5.10;;;2.70;;
18322;SDS011;9287;49.456;11.064;2022-10-23T04:05:17;3.90;;;2.57;;
18322;SDS011;9287;49.456;11.064;2022-10-23T04:07:44;3.20;;;2.37;;
18322;SDS011;9287;49.456;11.064;2022-10-23T04:10:11;4.00;;;2.23;;
18322;SDS011;9287;49.456;11.064;2022-10-23T04:12:40;3.73;;;3.00;;
18322;SDS011;9287;49.456;11.064;2022-10-23T04:15:08;2.67;;;2.47;;
18322;SDS011;9287;49.456;11.064;2022-10-23T04:17:36;3.10;;;2.37;;
18322;SDS011;9287;49.456;11.064;2022-10-23T04:20:03;3.07;;;2.60;;
18322;SDS011;9287;49.456;11.064;2022-10-23T04:22:31;4.70;;;3.03;;
18322;SDS011;9287;49.456;11.064;2022-10-23T04:24:58;4.23;;;2.23;;
18322;SDS011;9287;49.456;11.064;2022-10-23T04:27:26;3.60;;;2.10;;
18322;SDS011;9287;49.456;11.064;2022-10-23T04:29:54;3.27;;;2.70;;
18322;SDS011;9287;49.456;11.064;2022-10-23T04:32:24;5.33;;;2.77;;
18322;SDS011;9287;49.456;11.064;2022-10-23T04:34:51;2.53;;;2.30;;
18322;SDS011;9287;49.456;11.064;2022-10-23T04:37:19;5.73;;;2.70;;
18322;SDS011;9287;49.456;11.064;2022-10-23T04:39:46;5.97;;;3.07;;
18322;SDS011;9287;49.456;11.064;2022-10-23T04:42:14;3.53;;;2.33;;
18322;SDS011;9287;49.456;11.064;2022-10-23T04:44:41;3.93;;;2.60;;
18322;SDS011;9287;49.456;11.064;2022-10-23T04:47:10;3.40;;;2.80;;
18322;SDS011;9287;49.456;11.064;2022-10-23T04:49:38;4.73;;;3.00;;
18322;SDS011;9287;49.456;11.064;2022-10-23T04:52:05;5.30;;;2.20;;
18322;SDS011;9287;49.456;11.064;2022-10-23T04:54:34;2.77;;;2.40;;
18322;SDS011;9287;49.456;11.064;2022-10-23T04:57:02;4.90;;;2.43;;
18322;SDS011;9287;49.456;11.064;2022-10-23T04:59:29;5.57;;;2.50;;
18322;SDS011;9287;49.456;11.064;2022-10-23T05:01:56;5.20;;;2.23;;
18322;SDS011;9287;49.456;11.064;2022-10-23T05:04:25;3.93;;;2.27;;
18322;SDS011;9287;49.456;11.064;2022-10-23T05:06:53;2.77;;;2.37;;
18322;SDS011;9287;49.456;11.064;2022-10-23T05:09:20;3.20;;;2.27;;
18322;SDS011;9287;49.456;11.064;2022-10-23T05:11:48;4.00;;;2.67;;
18322;SDS011;9287;49.456;11.064;2022-10-23T05:14:15;5.03;;;2.67;;
18322;SDS011;9287;49.456;11.064;2022-10-23T05:16:49;2.83;;;2.60;;
18322;SDS011;9287;49.456;11.064;2022-10-23T05:19:20;2.80;;;2.10;;
18322;SDS011;9287;49.456;11.064;2022-10-23T05:21:51;4.20;;;2.80;;
18322;SDS011;9287;49.456;11.064;2022-10-23T05:24:21;4.13;;;2.50;;
18322;SDS011;9287;49.456;11.064;2022-10-23T05:26:48;6.40;;;2.37;;
18322;SDS011;9287;49.456;11.064;2022-10-23T05:29:18;4.37;;;2.27;;
18322;SDS011;9287;49.456;11.064;2022-10-23T05:31:45;4.50;;;2.20;;
18322;SDS011;9287;49.456;11.064;2022-10-23T05:34:13;3.60;;;2.50;;
18322;SDS011;9287;49.456;11.064;2022-10-23T05:36:41;3.03;;;2.57;;
18322;SDS011;9287;49.456;11.064;2022-10-23T05:39:10;3.33;;;2.80;;
18322;SDS011;9287;49.456;11.064;2022-10-23T05:41:38;4.13;;;2.60;;
18322;SDS011;9287;49.456;11.064;2022-10-23T05:44:05;5.20;;;2.47;;
18322;SDS011;9287;49.456;11.064;2022-10-23T05:46:33;2.63;;;2.47;;
18322;SDS011;9287;49.456;11.064;2022-10-23T05:49:00;3.87;;;2.60;;
18322;SDS011;9287;49.456;11.064;2022-10-23T05:51:28;3.37;;;2.20;;
18322;SDS011;9287;49.456;11.064;2022-10-23T05:53:55;3.70;;;2.27;;
18322;SDS011;9287;49.456;11.064;2022-10-23T05:56:24;7.13;;;2.57;;
18322;SDS011;9287;49.456;11.064;2022-10-23T05:58:51;2.90;;;2.70;;
18322;SDS011;9287;49.456;11.064;2022-10-23T06:01:19;3.60;;;2.67;;
18322;SDS011;9287;49.456;11.064;2022-10-23T06:03:48;3.13;;;2.93;;
18322;SDS011;9287;49.456;11.064;2022-10-23T06:06:16;5.30;;;3.00;;
18322;SDS011;9287;49.456;11.064;2022-10-23T06:08:43;3.23;;;2.87;;
18322;SDS011;9287;49.456;11.064;2022-10-23T06:11:12;5.37;;;2.70;;
18322;SDS011;9287;49.456;11.064;2022-10-23T06:13:42;3.10;;;2.90;;
18322;SDS011;9287;49.456;11.064;2022-10-23T06:16:10;3.00;;;2.80;;
18322;SDS011;9287;49.456;11.064;2022-10-23T06:18:37;5.93;;;2.87;;
18322;SDS011;9287;49.456;11.064;2022-10-23T06:21:05;5.63;;;2.73;;
18322;SDS011;9287;49.456;11.064;2022-10-23T06:23:33;4.80;;;3.13;;
18322;SDS011;9287;49.456;11.064;2022-10-23T06:26:01;4.03;;;3.07;;
18322;SDS011;9287;49.456;11.064;2022-10-23T06:28:29;3.63;;;2.60;;
18322;SDS011;9287;49.456;11.064;2022-10-23T06:30:58;3.63;;;2.87;;
18322;SDS011;9287;49.456;11.064;2022-10-23T06:33:25;2.53;;;2.27;;
18322;SDS011;9287;49.456;11.064;2022-10-23T06:35:54;3.13;;;2.90;;
18322;SDS011;9287;49.456;11.064;2022-10-23T06:38:22;2.73;;;2.53;;
18322;SDS011;9287;49.456;11.064;2022-10-23T06:40:51;3.23;;;2.50;;
18322;SDS011;9287;49.456;11.064;2022-10-23T06:43:18;3.27;;;2.77;;
18322;SDS011;9287;49.456;11.064;2022-10-23T06:45:46;2.90;;;2.70;;
18322;SDS011;9287;49.456;11.064;2022-10-23T06:48:15;5.27;;;2.53;;
18322;SDS011;9287;49.456;11.064;2022-10-23T06:50:43;3.70;;;2.30;;
18322;SDS011;9287;49.456;11.064;2022-10-23T06:53:10;2.63;;;2.43;;
18322;SDS011;9287;49.456;11.064;2022-10-23T06:55:37;2.57;;;2.37;;
18322;SDS011;9287;49.456;11.064;2022-10-23T06:58:06;2.40;;;2.10;;
18322;SDS011;9287;49.456;11.064;2022-10-23T07:00:36;3.23;;;2.63;;
18322;SDS011;9287;49.456;11.064;2022-10-23T07:03:04;2.80;;;2.50;;
18322;SDS011;9287;49.456;11.064;2022-10-23T07:05:35;2.87;;;2.67;;
18322;SDS011;9287;49.456;11.064;2022-10-23T07:08:03;3.37;;;2.27;;
18322;SDS011;9287;49.456;11.064;2022-10-23T07:10:30;2.67;;;2.43;;
18322;SDS011;9287;49.456;11.064;2022-10-23T07:12:58;4.30;;;2.67;;
18322;SDS011;9287;49.456;11.064;2022-10-23T07:15:26;2.47;;;2.27;;
18322;SDS011;9287;49.456;11.064;2022-10-23T07:17:54;2.70;;;2.50;;
18322;SDS011;9287;49.456;11.064;2022-10-23T07:20:21;3.07;;;2.50;;
18322;SDS011;9287;49.456;11.064;2022-10-23T07:22:51;2.90;;;2.70;;
18322;SDS011;9287;49.456;11.064;2022-10-23T07:25:19;2.60;;;2.40;;
18322;SDS011;9287;49.456;11.064;2022-10-23T07:27:47;2.60;;;2.40;;
18322;SDS011;9287;49.456;11.064;2022-10-23T07:30:14;2.77;;;2.13;;
18322;SDS011;9287;49.456;11.064;2022-10-23T07:32:42;2.23;;;2.03;;
18322;SDS011;9287;49.456;11.064;2022-10-23T07:35:10;3.07;;;2.43;;
18322;SDS011;9287;49.456;11.064;2022-10-23T07:37:43;2.53;;;2.13;;
18322;SDS011;9287;49.456;11.064;2022-10-23T07:40:12;2.10;;;1.83;;
18322;SDS011;9287;49.456;11.064;2022-10-23T07:42:40;2.53;;;2.30;;
18322;SDS011;9287;49.456;11.064;2022-10-23T07:45:07;3.47;;;2.57;;
18322;SDS011;9287;49.456;11.064;2022-10-23T07:47:35;3.70;;;2.27;;
18322;SDS011;9287;49.456;11.064;2022-10-23T07:50:02;2.10;;;1.90;;
18322;SDS011;9287;49.456;11.064;2022-10-23T07:52:30;3.33;;;2.17;;
18322;SDS011;9287;49.456;11.064;2022-10-23T07:55:01;2.50;;;2.30;;
18322;SDS011;9287;49.456;11.064;2022-10-23T07:57:30;2.20;;;2.00;;
18322;SDS011;9287;49.456;11.064;2022-10-23T07:59:58;2.20;;;1.83;;
18322;SDS011;9287;49.456;11.064;2022-10-23T08:02:26;4.30;;;1.73;;
18322;SDS011;9287;49.456;11.064;2022-10-23T08:04:53;2.63;;;2.00;;
18322;SDS011;9287;49.456;11.064;2022-10-23T08:07:21;2.33;;;1.70;;
18322;SDS011;9287;49.456;11.064;2022-10-23T08:09:48;2.17;;;1.60;;
18322;SDS011;9287;49.456;11.064;2022-10-23T08:12:16;1.53;;;1.43;;
18322;SDS011;9287;49.456;11.064;2022-10-23T08:14:44;2.60;;;1.63;;
18322;SDS011;9287;49.456;11.064;2022-10-23T08:17:12;1.50;;;1.40;;
18322;SDS011;9287;49.456;11.064;2022-10-23T08:19:39;1.40;;;1.30;;
18322;SDS011;9287;49.456;11.064;2022-10-23T08:22:11;2.47;;;1.73;;
18322;SDS011;9287;49.456;11.064;2022-10-23T08:24:39;3.03;;;1.33;;
18322;SDS011;9287;49.456;11.064;2022-10-23T08:27:06;2.07;;;1.50;;
18322;SDS011;9287;49.456;11.064;2022-10-23T08:29:34;2.50;;;1.17;;
18322;SDS011;9287;49.456;11.064;2022-10-23T08:32:03;1.43;;;1.30;;
18322;SDS011;9287;49.456;11.064;2022-10-23T08:34:31;2.20;;;1.00;;
18322;SDS011;9287;49.456;11.064;2022-10-23T08:36:58;2.37;;;1.20;;
18322;SDS011;9287;49.456;11.064;2022-10-23T08:39:26;1.20;;;1.10;;
18322;SDS011;9287;49.456;11.064;2022-10-23T08:41:53;1.83;;;1.40;;
18322;SDS011;9287;49.456;11.064;2022-10-23T08:44:22;2.40;;;1.20;;
18322;SDS011;9287;49.456;11.064;2022-10-23T08:46:52;2.63;;;1.17;;
18322;SDS011;9287;49.456;11.064;2022-10-23T08:49:28;2.37;;;1.20;;
18322;SDS011;9287;49.456;11.064;2022-10-23T08:51:57;2.37;;;1.47;;
18322;SDS011;9287;49.456;11.064;2022-10-23T08:54:27;1.50;;;1.17;;
18322;SDS011;9287;49.456;11.064;2022-10-23T08:56:59;0.97;;;0.90;;
18322;SDS011;9287;49.456;11.064;2022-10-23T08:59:29;1.47;;;1.00;;
18322;SDS011;9287;49.456;11.064;2022-10-23T09:01:59;1.43;;;0.90;;
18322;SDS011;9287;49.456;11.064;2022-10-23T09:04:29;1.13;;;0.90;;
18322;SDS011;9287;49.456;11.064;2022-10-23T09:06:58;1.17;;;1.00;;
18322;SDS011;9287;49.456;11.064;2022-10-23T09:09:30;2.70;;;0.80;;
18322;SDS011;9287;49.456;11.064;2022-10-23T09:12:06;1.00;;;0.60;;
18322;SDS011;9287;49.456;11.064;2022-10-23T09:14:37;0.80;;;0.50;;
18322;SDS011;9287;49.456;11.064;2022-10-23T09:17:11;0.97;;;0.50;;
18322;SDS011;9287;49.456;11.064;2022-10-23T09:19:42;0.40;;;0.40;;
18322;SDS011;9287;49.456;11.064;2022-10-23T09:22:10;0.50;;;0.50;;
18322;SDS011;9287;49.456;11.064;2022-10-23T09:24:42;0.60;;;0.40;;
18322;SDS011;9287;49.456;11.064;2022-10-23T09:27:10;1.30;;;0.43;;
18322;SDS011;9287;49.456;11.064;2022-10-23T09:29:45;0.93;;;0.35;;
18322;SDS011;9287;49.456;11.064;2022-10-23T09:32:13;0.68;;;0.52;;
18322;SDS011;9287;49.456;11.064;2022-10-23T09:34:52;0.60;;;0.30;;
18322;SDS011;9287;49.456;11.064;2022-10-23T09:37:21;0.90;;;0.38;;
18322;SDS011;9287;49.456;11.064;2022-10-23T09:39:59;0.98;;;0.50;;
18322;SDS011;9287;49.456;11.064;2022-10-23T09:42:27;1.67;;;0.40;;
18322;SDS011;9287;49.456;11.064;2022-10-23T09:44:55;2.05;;;0.30;;
18322;SDS011;9287;49.456;11.064;2022-10-23T09:47:24;0.30;;;0.30;;
18322;SDS011;9287;49.456;11.064;2022-10-23T09:49:54;0.80;;;0.40;;
18322;SDS011;9287;49.456;11.064;2022-10-23T09:52:23;1.40;;;0.50;;
18322;SDS011;9287;49.456;11.064;2022-10-23T09:54:52;0.40;;;0.40;;
18322;SDS011;9287;49.456;11.064;2022-10-23T09:57:21;0.40;;;0.40;;
18322;SDS011;9287;49.456;11.064;2022-10-23T09:59:50;0.35;;;0.30;;
18322;SDS011;9287;49.456;11.064;2022-10-23T10:02:20;0.98;;;0.40;;
18322;SDS011;9287;49.456;11.064;2022-10-23T10:04:50;0.88;;;0.40;;
18322;SDS011;9287;49.456;11.064;2022-10-23T10:07:20;1.15;;;0.30;;
18322;SDS011;9287;49.456;11.064;2022-10-23T10:09:48;0.40;;;0.40;;
18322;SDS011;9287;49.456;11.064;2022-10-23T10:12:23;1.27;;;0.30;;
18322;SDS011;9287;49.456;11.064;2022-10-23T10:14:54;0.77;;;0.30;;
18322;SDS011;9287;49.456;11.064;2022-10-23T10:17:29;2.05;;;0.40;;
18322;SDS011;9287;49.456;11.064;2022-10-23T10:20:14;1.27;;;0.40;;
18322;SDS011;9287;49.456;11.064;2022-10-23T10:22:49;1.70;;;0.50;;
18322;SDS011;9287;49.456;11.064;2022-10-23T10:25:20;0.40;;;0.40;;
18322;SDS011;9287;49.456;11.064;2022-10-23T10:27:51;0.50;;;0.32;;
18322;SDS011;9287;49.456;11.064;2022-10-23T10:30:23;1.02;;;0.50;;
18322;SDS011;9287;49.456;11.064;2022-10-23T10:32:53;0.70;;;0.38;;
18322;SDS011;9287;49.456;11.064;2022-10-23T10:35:36;1.30;;;0.40;;
18322;SDS011;9287;49.456;11.064;2022-10-23T10:38:14;0.82;;;0.40;;
18322;SDS011;9287;49.456;11.064;2022-10-23T10:40:49;0.73;;;0.40;;
18322;SDS011;9287;49.456;11.064;2022-10-23T10:43:28;2.85;;;0.65;;
18322;SDS011;9287;49.456;11.064;2022-10-23T10:45:59;0.77;;;0.50;;
18322;SDS011;9287;49.456;11.064;2022-10-23T10:48:35;0.40;;;0.40;;
18322;SDS011;9287;49.456;11.064;2022-10-23T10:51:07;2.50;;;0.50;;
18322;SDS011;9287;49.456;11.064;2022-10-23T10:53:42;0.40;;;0.40;;
18322;SDS011;9287;49.456;11.064;2022-10-23T10:56:13;0.40;;;0.40;;
18322;SDS011;9287;49.456;11.064;2022-10-23T10:58:44;1.27;;;0.38;;
18322;SDS011;9287;49.456;11.064;2022-10-23T11:01:13;1.08;;;0.50;;
18322;SDS011;9287;49.456;11.064;2022-10-23T11:03:44;1.05;;;0.52;;
18322;SDS011;9287;49.456;11.064;2022-10-23T11:06:14;0.70;;;0.50;;
18322;SDS011;9287;49.456;11.064;2022-10-23T11:08:43;1.52;;;0.50;;
18322;SDS011;9287;49.456;11.064;2022-10-23T11:11:24;0.40;;;0.40;;
18322;SDS011;9287;49.456;11.064;2022-10-23T11:13:53;0.65;;;0.32;;
18322;SDS011;9287;49.456;11.064;2022-10-23T11:16:21;0.52;;;0.50;;
18322;SDS011;9287;49.456;11.064;2022-10-23T11:18:53;1.17;;;0.40;;
18322;SDS011;9287;49.456;11.064;2022-10-23T11:21:25;0.77;;;0.55;;
18322;SDS011;9287;49.456;11.064;2022-10-23T11:24:13;0.80;;;0.47;;
18322;SDS011;9287;49.456;11.064;2022-10-23T11:26:49;0.30;;;0.30;;
18322;SDS011;9287;49.456;11.064;2022-10-23T11:29:24;0.95;;;0.50;;
18322;SDS011;9287;49.456;11.064;2022-10-23T11:32:02;0.95;;;0.40;;
18322;SDS011;9287;49.456;11.064;2022-10-23T11:34:38;0.50;;;0.50;;
18322;SDS011;9287;49.456;11.064;2022-10-23T11:37:14;0.77;;;0.60;;
18322;SDS011;9287;49.456;11.064;2022-10-23T11:39:52;0.40;;;0.40;;
18322;SDS011;9287;49.456;11.064;2022-10-23T11:42:26;1.25;;;0.50;;
18322;SDS011;9287;49.456;11.064;2022-10-23T11:44:55;0.68;;;0.50;;
18322;SDS011;9287;49.456;11.064;2022-10-23T11:47:30;0.75;;;0.50;;
18322;SDS011;9287;49.456;11.064;2022-10-23T11:50:12;0.40;;;0.40;;
18322;SDS011;9287;49.456;11.064;2022-10-23T11:52:50;0.50;;;0.40;;
18322;SDS011;9287;49.456;11.064;2022-10-23T11:55:54;0.40;;;0.40;;
18322;SDS011;9287;49.456;11.064;2022-10-23T11:58:22;2.08;;;0.60;;
18322;SDS011;9287;49.456;11.064;2022-10-23T12:00:58;1.30;;;0.60;;
18322;SDS011;9287;49.456;11.064;2022-10-23T12:03:29;0.40;;;0.40;;
18322;SDS011;9287;49.456;11.064;2022-10-23T12:05:58;1.60;;;0.60;;
18322;SDS011;9287;49.456;11.064;2022-10-23T12:08:27;0.40;;;0.40;;
18322;SDS011;9287;49.456;11.064;2022-10-23T12:10:57;0.40;;;0.40;;
18322;SDS011;9287;49.456;11.064;2022-10-23T12:13:29;0.50;;;0.50;;
18322;SDS011;9287;49.456;11.064;2022-10-23T12:15:56;1.67;;;0.50;;
18322;SDS011;9287;49.456;11.064;2022-10-23T12:18:26;1.15;;;0.60;;
18322;SDS011;9287;49.456;11.064;2022-10-23T12:20:55;0.68;;;0.43;;
18322;SDS011;9287;49.456;11.064;2022-10-23T12:23:30;5.30;;;0.60;;
18322;SDS011;9287;49.456;11.064;2022-10-23T12:26:11;3.20;;;0.75;;
18322;SDS011;9287;49.456;11.064;2022-10-23T12:28:44;1.25;;;0.50;;
18322;SDS011;9287;49.456;11.064;2022-10-23T12:31:19;4.88;;;0.60;;
18322;SDS011;9287;49.456;11.064;2022-10-23T12:33:51;0.77;;;0.50;;
18322;SDS011;9287;49.456;11.064;2022-10-23T12:36:24;0.63;;;0.50;;
18322;SDS011;9287;49.456;11.064;2022-10-23T12:38:55;0.68;;;0.40;;
18322;SDS011;9287;49.456;11.064;2022-10-23T12:41:25;0.50;;;0.50;;
18322;SDS011;9287;49.456;11.064;2022-10-23T12:43:54;0.93;;;0.50;;
18322;SDS011;9287;49.456;11.064;2022-10-23T12:46:29;1.05;;;0.55;;
18322;SDS011;9287;49.456;11.064;2022-10-23T12:48:58;0.60;;;0.50;;
18322;SDS011;9287;49.456;11.064;2022-10-23T12:51:26;0.60;;;0.60;;
18322;SDS011;9287;49.456;11.064;2022-10-23T12:53:54;0.52;;;0.50;;
18322;SDS011;9287;49.456;11.064;2022-10-23T12:56:23;1.90;;;0.60;;
18322;SDS011;9287;49.456;11.064;2022-10-23T12:58:53;0.50;;;0.50;;
18322;SDS011;9287;49.456;11.064;2022-10-23T13:01:22;0.93;;;0.50;;
18322;SDS011;9287;49.456;11.064;2022-10-23T13:03:51;0.93;;;0.50;;
18322;SDS011;9287;49.456;11.064;2022-10-23T13:06:22;0.57;;;0.50;;
18322;SDS011;9287;49.456;11.064;2022-10-23T13:08:49;0.50;;;0.50;;
18322;SDS011;9287;49.456;11.064;2022-10-23T13:11:17;1.98;;;0.47;;
18322;SDS011;9287;49.456;11.064;2022-10-23T13:13:45;0.80;;;0.80;;
18322;SDS011;9287;49.456;11.064;2022-10-23T13:16:16;1.50;;;0.60;;
18322;SDS011;9287;49.456;11.064;2022-10-23T13:18:45;2.33;;;0.60;;
18322;SDS011;9287;49.456;11.064;2022-10-23T13:21:15;0.50;;;0.50;;
18322;SDS011;9287;49.456;11.064;2022-10-23T13:23:43;0.50;;;0.50;;
18322;SDS011;9287;49.456;11.064;2022-10-23T13:26:23;0.63;;;0.50;;
18322;SDS011;9287;49.456;11.064;2022-10-23T13:28:50;1.30;;;0.63;;
18322;SDS011;9287;49.456;11.064;2022-10-23T13:31:24;1.88;;;0.70;;
18322;SDS011;9287;49.456;11.064;2022-10-23T13:34:02;1.30;;;0.52;;
18322;SDS011;9287;49.456;11.064;2022-10-23T13:36:31;1.50;;;0.60;;
18322;SDS011;9287;49.456;11.064;2022-10-23T13:39:02;1.10;;;0.52;;
18322;SDS011;9287;49.456;11.064;2022-10-23T13:41:33;1.98;;;0.70;;
18322;SDS011;9287;49.456;11.064;2022-10-23T13:44:01;2.95;;;0.60;;
18322;SDS011;9287;49.456;11.064;2022-10-23T13:46:30;1.02;;;0.60;;
18322;SDS011;9287;49.456;11.064;2022-10-23T13:48:58;0.60;;;0.60;;
18322;SDS011;9287;49.456;11.064;2022-10-23T13:51:27;1.65;;;0.60;;
18322;SDS011;9287;49.456;11.064;2022-10-23T13:53:55;3.45;;;0.70;;
18322;SDS011;9287;49.456;11.064;2022-10-23T13:56:23;0.70;;;0.70;;
18322;SDS011;9287;49.456;11.064;2022-10-23T13:58:51;0.57;;;0.55;;
18322;SDS011;9287;49.456;11.064;2022-10-23T14:01:19;0.85;;;0.60;;
18322;SDS011;9287;49.456;11.064;2022-10-23T14:03:49;0.98;;;0.70;;
18322;SDS011;9287;49.456;11.064;2022-10-23T14:06:17;1.27;;;0.70;;
18322;SDS011;9287;49.456;11.064;2022-10-23T14:08:45;0.70;;;0.70;;
18322;SDS011;9287;49.456;11.064;2022-10-23T14:11:13;0.70;;;0.70;;
18322;SDS011;9287;49.456;11.064;2022-10-23T14:13:41;1.30;;;0.90;;
18322;SDS011;9287;49.456;11.064;2022-10-23T14:16:10;0.88;;;0.70;;
18322;SDS011;9287;49.456;11.064;2022-10-23T14:18:38;1.50;;;0.90;;
18322;SDS011;9287;49.456;11.064;2022-10-23T14:21:08;0.82;;;0.82;;
18322;SDS011;9287;49.456;11.064;2022-10-23T14:23:36;0.68;;;0.68;;
18322;SDS011;9287;49.456;11.064;2022-10-23T14:26:04;0.83;;;0.83;;
18322;SDS011;9287;49.456;11.064;2022-10-23T14:28:32;1.33;;;1.23;;
18322;SDS011;9287;49.456;11.064;2022-10-23T14:31:02;1.57;;;0.90;;
18322;SDS011;9287;49.456;11.064;2022-10-23T14:33:30;1.10;;;0.90;;
18322;SDS011;9287;49.456;11.064;2022-10-23T14:35:57;4.43;;;0.90;;
18322;SDS011;9287;49.456;11.064;2022-10-23T14:38:26;0.97;;;0.90;;
18322;SDS011;9287;49.456;11.064;2022-10-23T14:40:53;1.45;;;1.05;;
18322;SDS011;9287;49.456;11.064;2022-10-23T14:43:21;1.00;;;0.95;;
18322;SDS011;9287;49.456;11.064;2022-10-23T14:45:49;2.50;;;1.00;;
18322;SDS011;9287;49.456;11.064;2022-10-23T14:48:16;1.27;;;1.17;;
18322;SDS011;9287;49.456;11.064;2022-10-23T14:50:44;2.35;;;1.00;;
18322;SDS011;9287;49.456;11.064;2022-10-23T14:53:12;1.92;;;1.10;;
18322;SDS011;9287;49.456;11.064;2022-10-23T14:55:41;1.10;;;1.00;;
18322;SDS011;9287;49.456;11.064;2022-10-23T14:58:09;1.20;;;1.10;;
18322;SDS011;9287;49.456;11.064;2022-10-23T15:00:36;2.00;;;0.90;;
18322;SDS011;9287;49.456;11.064;2022-10-23T15:03:04;1.75;;;1.00;;